Time;durP1;ratioP1;P1;durP2;ratioP2;P2;SDS_P1;SDS_P2;PMS_P1;PMS_P2;Temp;Humidity;BMP_temperature;BMP_pressure;BME280_temperature;BME280_humidity;BME280_pressure;Samples;Min_cycle;Max_cycle;Signal;HPM_P1;HPM_P2
2022/05/05 00:02:23;;;;;;;14.52;6.25;;;8.20;99.90;;;;;;7395745;19;20010;-74
2022/05/05 00:04:52;;;;;;;11.25;6.25;;;8.10;99.90;;;;;;7397502;19;20090;-75
2022/05/05 00:07:21;;;;;;;12.25;6.53;;;8.10;99.90;;;;;;7394889;19;20034;-74
2022/05/05 00:09:53;;;;;;;11.18;6.28;;;;;;;;;;7396555;19;20078;-74
2022/05/05 00:15:05;;;;;;;13.73;6.57;;;7.90;99.90;;;;;;7397150;19;20022;-74
2022/05/05 00:17:34;;;;;;;13.93;6.75;;;7.90;99.90;;;;;;7395789;19;20038;-74
2022/05/05 00:20:04;;;;;;;12.75;6.75;;;8.20;99.90;;;;;;7396671;19;20017;-74
2022/05/05 00:22:32;;;;;;;11.00;7.13;;;8.30;99.90;;;;;;7396215;19;20011;-74
2022/05/05 00:25:04;;;;;;;11.55;6.40;;;7.90;99.90;;;;;;7398145;19;20034;-74
2022/05/05 00:27:33;;;;;;;11.23;6.50;;;7.70;99.90;;;;;;7396739;19;20019;-74
2022/05/05 00:30:03;;;;;;;13.57;7.05;;;7.90;99.90;;;;;;7393109;19;20018;-75
2022/05/05 00:32:32;;;;;;;11.15;6.78;;;7.80;99.90;;;;;;7394617;19;20025;-74
2022/05/05 00:35:01;;;;;;;11.02;6.65;;;7.80;99.90;;;;;;7395560;19;20394;-74
2022/05/05 00:37:30;;;;;;;12.82;7.70;;;8.10;99.90;;;;;;7396703;19;20015;-74
2022/05/05 00:39:59;;;;;;;10.80;7.03;;;7.60;99.90;;;;;;7394705;19;20031;-75
2022/05/05 00:42:31;;;;;;;12.20;7.07;;;7.70;99.90;;;;;;7396488;19;20011;-74
2022/05/05 00:45:02;;;;;;;10.38;6.93;;;7.60;99.90;;;;;;7394737;19;20035;-74
2022/05/05 00:47:31;;;;;;;15.18;7.40;;;7.60;99.90;;;;;;7398216;19;20350;-75
2022/05/05 00:50:01;;;;;;;12.90;7.05;;;7.60;99.90;;;;;;7398190;19;20386;-75
2022/05/05 00:52:30;;;;;;;11.23;7.20;;;7.70;99.90;;;;;;7395045;19;20360;-74
2022/05/05 00:54:59;;;;;;;10.85;7.70;;;7.70;99.90;;;;;;7394136;19;20507;-74
2022/05/05 00:57:32;;;;;;;12.85;7.20;;;7.60;99.90;;;;;;7395148;19;20018;-75
2022/05/05 01:00:03;;;;;;;13.93;7.18;;;7.30;99.90;;;;;;7395065;19;20021;-75
2022/05/05 01:02:35;;;;;;;15.27;7.32;;;7.40;99.90;;;;;;7395207;19;20038;-74
2022/05/05 01:05:04;;;;;;;14.52;7.40;;;7.60;99.90;;;;;;7395831;19;20046;-74
2022/05/05 01:07:34;;;;;;;14.38;7.18;;;;;;;;;;7396368;19;20018;-74
2022/05/05 01:10:03;;;;;;;12.77;7.25;;;7.60;99.90;;;;;;7397533;19;20033;-74
2022/05/05 01:12:35;;;;;;;16.00;7.57;;;7.50;99.90;;;;;;7392712;19;20022;-74
2022/05/05 01:15:05;;;;;;;11.65;7.32;;;7.40;99.90;;;;;;7396521;19;20074;-74
2022/05/05 01:17:34;;;;;;;11.15;6.80;;;7.50;99.90;;;;;;7397640;19;20014;-74
2022/05/05 01:20:12;;;;;;;12.63;6.53;;;7.40;99.90;;;;;;7396049;19;20034;-74
2022/05/05 01:22:44;;;;;;;13.57;6.88;;;;;;;;;;7391361;19;20078;-74
2022/05/05 01:30:38;;;;;;;17.52;6.38;;;7.50;99.90;;;;;;7393978;19;20014;-75
2022/05/05 01:33:13;;;;;;;11.60;6.50;;;7.60;99.90;;;;;;7394287;19;20009;-74
2022/05/05 01:35:43;;;;;;;12.13;6.60;;;7.60;99.90;;;;;;7395811;19;20015;-74
2022/05/05 01:38:16;;;;;;;12.55;7.50;;;7.40;99.90;;;;;;7392356;19;20477;-74
2022/05/05 01:40:46;;;;;;;10.65;6.82;;;7.40;99.90;;;;;;7395541;19;20015;-74
2022/05/05 01:43:15;;;;;;;12.40;7.35;;;7.20;99.90;;;;;;7397888;19;20010;-74
2022/05/05 01:45:45;;;;;;;11.43;7.05;;;7.40;99.90;;;;;;7398565;19;20104;-75
2022/05/05 01:48:15;;;;;;;15.65;7.45;;;7.30;99.90;;;;;;7403089;19;20494;-74
2022/05/05 01:50:44;;;;;;;16.40;7.50;;;7.50;99.90;;;;;;7400403;19;20007;-75
2022/05/05 01:53:16;;;;;;;11.98;7.53;;;7.10;99.90;;;;;;7399985;19;20032;-74
2022/05/05 01:55:45;;;;;;;16.13;7.28;;;;;;;;;;7401656;19;20018;-74
2022/05/05 01:58:14;;;;;;;12.18;6.65;;;;;;;;;;7399873;19;20015;-75
2022/05/05 02:00:44;;;;;;;13.82;6.97;;;7.40;99.90;;;;;;7401517;19;20022;-74
2022/05/05 02:03:18;;;;;;;9.73;7.20;;;7.00;99.90;;;;;;7401024;19;20035;-74
2022/05/05 02:05:48;;;;;;;13.93;7.43;;;7.50;99.90;;;;;;7401383;19;20011;-74
2022/05/05 02:08:20;;;;;;;11.75;7.15;;;7.30;99.90;;;;;;7401354;19;20123;-74
2022/05/05 02:10:49;;;;;;;16.77;7.75;;;;;;;;;;7399980;19;20026;-74
2022/05/05 02:13:20;;;;;;;15.88;7.72;;;7.40;99.90;;;;;;7400045;19;20010;-74
2022/05/05 02:15:49;;;;;;;10.98;7.05;;;7.60;99.90;;;;;;7398156;19;20415;-72
2022/05/05 02:18:18;;;;;;;12.93;7.65;;;7.20;99.90;;;;;;7399906;19;20014;-74
2022/05/05 02:20:47;;;;;;;18.08;7.30;;;7.20;99.90;;;;;;7400956;19;20014;-74
2022/05/05 02:23:19;;;;;;;13.43;7.25;;;7.50;99.90;;;;;;7399933;19;20086;-75
2022/05/05 02:25:48;;;;;;;14.85;7.95;;;;;;;;;;7400846;19;20039;-76
2022/05/05 02:28:18;;;;;;;16.33;7.60;;;7.20;99.90;;;;;;7399175;19;20513;-75
2022/05/05 02:30:48;;;;;;;17.90;8.10;;;7.30;99.90;;;;;;7401711;19;20019;-76
2022/05/05 02:33:17;;;;;;;15.07;8.30;;;7.40;99.90;;;;;;7398821;19;20031;-74
2022/05/05 02:38:42;;;;;;;14.52;8.10;;;;;;;;;;7400842;19;20022;-74
2022/05/05 02:38:44;;;;;;;15.32;8.18;;;7.40;99.90;;;;;;7403243;19;20014;-74
2022/05/05 02:41:13;;;;;;;17.17;8.48;;;6.90;99.90;;;;;;7400096;19;20385;-74
2022/05/05 02:43:42;;;;;;;15.20;8.10;;;7.00;99.90;;;;;;7400338;19;20019;-74
2022/05/05 02:46:11;;;;;;;17.30;8.55;;;7.20;99.90;;;;;;7401478;19;20074;-74
2022/05/05 02:48:40;;;;;;;14.00;8.13;;;7.10;99.90;;;;;;7398752;19;20021;-74
2022/05/05 02:51:10;;;;;;;15.90;8.60;;;6.80;99.90;;;;;;7399396;19;20074;-74
2022/05/05 02:56:22;;;;;;;17.33;8.90;;;6.90;99.90;;;;;;7400107;19;20474;-74
2022/05/05 02:58:52;;;;;;;14.95;8.27;;;;;;;;;;7399744;19;20499;-74
2022/05/05 03:01:20;;;;;;;18.45;9.13;;;7.10;99.90;;;;;;7398948;19;20022;-74
2022/05/05 03:03:49;;;;;;;14.70;9.55;;;6.80;99.90;;;;;;7400564;19;20018;-75
2022/05/05 03:06:19;;;;;;;19.83;9.80;;;;;;;;;;7398536;19;20473;-75
2022/05/05 03:08:52;;;;;;;17.98;10.27;;;6.70;99.90;;;;;;7399123;19;20015;-73
2022/05/05 03:11:21;;;;;;;18.60;10.13;;;6.70;99.90;;;;;;7398234;19;20360;-74
2022/05/05 03:13:52;;;;;;;19.83;10.60;;;6.80;99.90;;;;;;7399467;19;20022;-74
2022/05/05 03:16:21;;;;;;;19.88;10.10;;;7.20;99.90;;;;;;7398857;19;20029;-73
2022/05/05 03:18:50;;;;;;;21.13;10.80;;;6.70;99.90;;;;;;7399854;19;20007;-73
2022/05/05 03:21:19;;;;;;;18.98;10.77;;;6.60;99.90;;;;;;7397732;19;20485;-73
2022/05/05 03:23:51;;;;;;;19.38;10.60;;;6.60;99.90;;;;;;7397918;19;20371;-74
2022/05/05 03:26:21;;;;;;;18.33;10.32;;;;;;;;;;7400530;19;20035;-74
2022/05/05 03:28:50;;;;;;;19.50;10.48;;;;;;;;;;7398586;19;20347;-73
2022/05/05 03:31:20;;;;;;;22.48;10.93;;;;;;;;;;7397171;19;20350;-74
2022/05/05 03:33:49;;;;;;;17.70;9.77;;;;;;;;;;7397006;19;20019;-74
2022/05/05 03:36:18;;;;;;;22.38;10.13;;;6.60;99.90;;;;;;7398944;19;20045;-74
2022/05/05 03:38:47;;;;;;;21.40;10.93;;;6.90;99.90;;;;;;7395875;19;20043;-74
2022/05/05 03:41:19;;;;;;;19.08;10.32;;;;;;;;;;7397813;19;20527;-74
2022/05/05 03:43:48;;;;;;;18.45;9.82;;;;;;;;;;7397374;19;20485;-75
2022/05/05 03:46:17;;;;;;;18.02;9.88;;;6.60;99.90;;;;;;7399656;19;20090;-75
2022/05/05 03:48:47;;;;;;;22.98;10.52;;;7.00;99.90;;;;;;7396447;19;20426;-75
2022/05/05 03:51:16;;;;;;;21.45;11.05;;;;;;;;;;7396932;19;20024;-75
2022/05/05 03:53:45;;;;;;;21.98;10.90;;;6.60;99.90;;;;;;7400281;19;20011;-74
2022/05/05 03:56:14;;;;;;;23.90;12.07;;;6.60;99.90;;;;;;7391918;19;20014;-74
2022/05/05 03:58:46;;;;;;;23.13;11.85;;;6.60;99.90;;;;;;7396279;19;20428;-74
2022/05/05 04:01:15;;;;;;;17.75;10.20;;;7.00;99.90;;;;;;7394904;19;20018;-74
2022/05/05 04:03:45;;;;;;;23.45;11.88;;;6.60;99.90;;;;;;7398008;19;20046;-74
2022/05/05 04:06:16;;;;;;;20.77;11.27;;;;;;;;;;7394055;19;20060;-74
2022/05/05 04:08:46;;;;;;;20.30;10.60;;;;;;;;;;7396355;19;20002;-74
2022/05/05 04:11:15;;;;;;;21.85;11.18;;;6.70;99.90;;;;;;7393641;19;20018;-74
2022/05/05 04:13:50;;;;;;;17.92;10.80;;;;;;;;;;7396305;19;20082;-74
2022/05/05 04:16:18;;;;;;;23.38;11.23;;;7.20;99.90;;;;;;7395618;19;20017;-74
2022/05/05 04:18:48;;;;;;;19.17;11.45;;;;;;;;;;7395562;19;20019;-74
2022/05/05 04:21:17;;;;;;;23.10;10.90;;;;;;;;;;7396406;19;20029;-74
2022/05/05 04:23:48;;;;;;;22.88;11.57;;;7.00;99.90;;;;;;7395890;19;20030;-73
2022/05/05 04:26:18;;;;;;;19.20;10.90;;;6.90;99.90;;;;;;7397698;19;20014;-73
2022/05/05 04:28:51;;;;;;;19.92;11.40;;;6.90;99.90;;;;;;7397080;19;20013;-73
2022/05/05 04:31:22;;;;;;;22.95;11.50;;;6.90;99.90;;;;;;7397667;19;20085;-73
2022/05/05 04:33:52;;;;;;;23.42;11.38;;;7.00;99.90;;;;;;7394725;19;20458;-74
2022/05/05 04:36:25;;;;;;;20.15;12.30;;;7.20;99.90;;;;;;7395380;19;20038;-73
2022/05/05 04:38:54;;;;;;;24.80;11.98;;;7.00;99.90;;;;;;7396183;19;20018;-73
2022/05/05 04:41:23;;;;;;;20.35;11.27;;;7.20;99.90;;;;;;7395649;19;20028;-73
2022/05/05 04:43:55;;;;;;;17.35;11.90;;;7.40;99.90;;;;;;7392090;19;20074;-74
2022/05/05 04:46:24;;;;;;;23.45;11.38;;;7.30;99.90;;;;;;7395377;19;20389;-73
2022/05/05 04:48:53;;;;;;;17.15;9.85;;;7.40;99.90;;;;;;7394193;19;20056;-73
2022/05/05 04:51:22;;;;;;;19.50;11.15;;;7.90;99.90;;;;;;7394025;19;20011;-73
2022/05/05 04:53:52;;;;;;;17.38;11.05;;;;;;;;;;7393199;19;20087;-73
2022/05/05 04:56:21;;;;;;;20.45;10.65;;;7.50;99.90;;;;;;7395924;19;20014;-73
2022/05/05 04:58:50;;;;;;;20.90;11.50;;;7.50;99.90;;;;;;7393161;19;20011;-74
2022/05/05 05:01:21;;;;;;;19.63;10.82;;;7.50;99.90;;;;;;7394632;19;20086;-74
2022/05/05 05:03:50;;;;;;;18.95;11.68;;;7.50;99.90;;;;;;7396017;19;20011;-74
2022/05/05 05:06:19;;;;;;;24.30;11.30;;;7.50;99.90;;;;;;7399029;19;20037;-74
2022/05/05 05:08:48;;;;;;;24.13;11.35;;;7.50;99.90;;;;;;7397044;19;20015;-74
2022/05/05 05:11:17;;;;;;;21.90;11.07;;;7.90;99.90;;;;;;7397685;19;20049;-74
2022/05/05 05:13:46;;;;;;;19.13;11.85;;;7.80;99.90;;;;;;7393634;19;20404;-74
2022/05/05 05:16:15;;;;;;;18.77;10.98;;;;;;;;;;7393796;19;20007;-74
2022/05/05 05:18:47;;;;;;;23.48;11.23;;;7.70;99.90;;;;;;7404213;19;20023;-74
2022/05/05 05:21:16;;;;;;;22.92;11.40;;;;;;;;;;7403459;19;20035;-74
2022/05/05 05:23:45;;;;;;;18.65;10.75;;;7.90;99.90;;;;;;7403161;19;20011;-74
2022/05/05 05:26:14;;;;;;;19.25;11.18;;;7.90;99.90;;;;;;7397687;19;20015;-74
2022/05/05 05:28:43;;;;;;;21.75;10.95;;;7.90;99.90;;;;;;7401965;19;20030;-74
2022/05/05 05:31:12;;;;;;;16.98;9.20;;;7.90;99.90;;;;;;7403669;19;20025;-74
2022/05/05 05:33:49;;;;;;;22.88;10.88;;;;;;;;;;7397144;19;20482;-74
2022/05/05 05:36:18;;;;;;;21.10;11.15;;;8.10;99.90;;;;;;7403148;19;20020;-74
2022/05/05 05:38:48;;;;;;;24.50;11.25;;;8.20;99.90;;;;;;7404035;19;20018;-75
2022/05/05 05:41:17;;;;;;;18.73;11.48;;;;;;;;;;7400031;19;20041;-75
2022/05/05 05:43:46;;;;;;;20.83;11.18;;;8.30;99.90;;;;;;7402083;19;20010;-75
2022/05/05 05:46:15;;;;;;;21.08;11.57;;;;;;;;;;7402550;19;20383;-75
2022/05/05 05:48:47;;;;;;;20.08;11.13;;;8.50;99.90;;;;;;7401166;19;20010;-75
2022/05/05 05:51:16;;;;;;;22.42;11.93;;;8.40;99.90;;;;;;7404191;19;20010;-75
2022/05/05 05:53:45;;;;;;;20.42;11.30;;;8.50;99.90;;;;;;7399877;19;20013;-75
2022/05/05 05:56:14;;;;;;;19.33;11.40;;;8.60;99.90;;;;;;7398792;19;20053;-75
2022/05/05 05:58:43;;;;;;;20.85;11.27;;;8.90;99.90;;;;;;7401880;19;20077;-74
2022/05/05 06:01:12;;;;;;;20.85;11.63;;;;;;;;;;7399474;19;20011;-75
2022/05/05 06:03:53;;;;;;;21.17;10.35;;;8.50;99.90;;;;;;7397676;19;20031;-74
2022/05/05 06:06:27;;;;;;;16.20;10.05;;;9.80;99.90;;;;;;7403311;19;20077;-74
2022/05/05 06:08:57;;;;;;;19.13;10.60;;;;;;;;;;7403703;19;20081;-74
2022/05/05 06:11:26;;;;;;;18.63;11.88;;;;;;;;;;7398128;19;20095;-74
2022/05/05 06:13:56;;;;;;;17.05;10.30;;;9.00;99.90;;;;;;7400181;19;20386;-74
2022/05/05 06:16:25;;;;;;;18.98;10.40;;;9.10;99.90;;;;;;7399686;19;20024;-75
2022/05/05 06:18:54;;;;;;;17.17;10.45;;;9.10;99.90;;;;;;7400332;19;20182;-75
2022/05/05 06:21:26;;;;;;;16.00;10.13;;;9.20;99.90;;;;;;7401183;19;20006;-75
2022/05/05 06:23:55;;;;;;;17.55;10.85;;;8.90;99.90;;;;;;7399737;19;20018;-76
2022/05/05 06:26:27;;;;;;;16.38;9.98;;;9.30;99.90;;;;;;7401627;19;20034;-75
2022/05/05 06:28:56;;;;;;;18.20;10.13;;;9.00;99.90;;;;;;7399806;19;20011;-75
2022/05/05 06:31:26;;;;;;;16.73;9.25;;;9.20;99.90;;;;;;7398179;19;20014;-75
2022/05/05 06:33:56;;;;;;;16.55;9.95;;;;;;;;;;7401485;19;20505;-75
2022/05/05 06:36:28;;;;;;;14.90;9.27;;;9.30;99.90;;;;;;7399106;19;20035;-75
2022/05/05 06:38:57;;;;;;;14.82;8.95;;;9.50;99.90;;;;;;7402842;19;20389;-75
2022/05/05 06:41:26;;;;;;;19.38;9.93;;;9.60;99.90;;;;;;7402346;19;20364;-76
2022/05/05 06:43:55;;;;;;;17.05;9.88;;;;;;;;;;7402420;19;20038;-76
2022/05/05 06:46:24;;;;;;;16.75;9.70;;;9.80;99.90;;;;;;7397899;19;20017;-76
2022/05/05 06:48:53;;;;;;;22.02;10.45;;;10.00;99.90;;;;;;7398564;19;20006;-76
2022/05/05 06:51:22;;;;;;;18.45;9.75;;;10.10;99.90;;;;;;7401886;19;20344;-76
2022/05/05 06:53:54;;;;;;;21.77;9.57;;;10.10;99.90;;;;;;7396777;19;20077;-76
2022/05/05 06:56:24;;;;;;;17.65;9.18;;;10.00;99.90;;;;;;7395522;19;20015;-76
2022/05/05 06:58:53;;;;;;;16.15;10.38;;;9.90;99.90;;;;;;7400596;19;20512;-77
2022/05/05 07:06:45;;;;;;;16.77;9.30;;;10.00;99.90;;;;;;7398452;19;20355;-76
2022/05/05 07:11:58;;;;;;;16.98;9.77;;;10.40;99.90;;;;;;7397402;19;20014;-76
2022/05/05 07:14:27;;;;;;;20.13;9.57;;;10.70;99.60;;;;;;7397216;19;20420;-76
2022/05/05 07:16:57;;;;;;;18.27;10.10;;;10.70;99.90;;;;;;7400008;19;20473;-75
2022/05/05 07:19:26;;;;;;;15.57;10.07;;;10.90;99.60;;;;;;7397778;19;20501;-78
2022/05/05 07:21:55;;;;;;;17.38;9.25;;;11.30;99.90;;;;;;7401350;19;20146;-76
2022/05/05 07:24:29;;;;;;;16.42;9.48;;;11.00;99.40;;;;;;7398740;19;20074;-75
2022/05/05 07:26:59;;;;;;;14.68;9.65;;;;;;;;;;7400371;19;20018;-75
2022/05/05 07:29:28;;;;;;;16.83;10.32;;;;;;;;;;7398917;19;20523;-75
2022/05/05 07:31:58;;;;;;;17.02;10.25;;;;;;;;;;7396818;19;20010;-76
2022/05/05 07:34:28;;;;;;;17.92;10.38;;;11.50;98.70;;;;;;7399418;19;20095;-76
2022/05/05 07:36:57;;;;;;;15.50;9.38;;;11.50;98.50;;;;;;7396742;19;20006;-75
2022/05/05 07:39:28;;;;;;;15.60;10.20;;;11.40;99.90;;;;;;7399384;19;20043;-76
2022/05/05 07:41:58;;;;;;;17.27;10.00;;;11.40;99.60;;;;;;7399289;19;20533;-76
2022/05/05 07:44:27;;;;;;;21.75;10.48;;;11.70;99.80;;;;;;7396028;19;20019;-76
2022/05/05 07:46:56;;;;;;;16.00;10.13;;;11.80;99.80;;;;;;7400953;19;20038;-76
2022/05/05 07:49:25;;;;;;;17.63;10.63;;;11.80;99.60;;;;;;7396345;19;20034;-75
2022/05/05 07:51:55;;;;;;;23.13;10.88;;;12.10;99.50;;;;;;7398465;19;20088;-76
2022/05/05 07:57:11;;;;;;;17.55;10.65;;;12.30;97.60;;;;;;7396444;19;20015;-75
2022/05/05 07:59:42;;;;;;;19.00;9.77;;;12.30;98.60;;;;;;7400599;19;20013;-75
2022/05/05 08:02:13;;;;;;;20.55;9.48;;;12.30;98.30;;;;;;7398257;19;20431;-76
2022/05/05 08:04:43;;;;;;;20.05;10.15;;;12.60;96.50;;;;;;7395913;19;20010;-76
2022/05/05 08:07:13;;;;;;;17.50;10.57;;;12.70;98.00;;;;;;7396606;19;20027;-75
2022/05/05 08:09:42;;;;;;;18.30;9.43;;;12.30;97.90;;;;;;7395958;19;20348;-76
2022/05/05 08:12:15;;;;;;;15.70;8.98;;;12.40;97.90;;;;;;7396318;19;20031;-76
2022/05/05 08:14:44;;;;;;;17.00;9.48;;;12.60;97.40;;;;;;7398209;19;20010;-76
2022/05/05 08:17:13;;;;;;;16.33;8.80;;;12.70;97.30;;;;;;7395449;19;20348;-75
2022/05/05 08:19:42;;;;;;;13.98;9.10;;;12.80;95.50;;;;;;7395823;19;20335;-76
2022/05/05 08:22:11;;;;;;;14.68;9.18;;;13.30;96.90;;;;;;7396218;19;20369;-76
2022/05/05 08:30:09;;;;;;;16.10;8.73;;;13.20;96.80;;;;;;7396057;19;20010;-76
2022/05/05 08:32:39;;;;;;;14.95;8.85;;;13.10;96.60;;;;;;7397562;19;20006;-75
2022/05/05 08:35:10;;;;;;;14.60;8.75;;;13.20;96.30;;;;;;7394706;19;20034;-75
2022/05/05 08:37:39;;;;;;;16.80;8.82;;;13.30;96.30;;;;;;7394057;19;20038;-76
2022/05/05 08:40:11;;;;;;;17.75;8.68;;;13.60;96.20;;;;;;7396433;19;20014;-76
2022/05/05 08:42:43;;;;;;;16.08;7.82;;;13.80;95.50;;;;;;7398407;19;20031;-74
2022/05/05 08:45:13;;;;;;;15.05;8.60;;;14.10;95.00;;;;;;7394710;19;20011;-75
2022/05/05 08:47:43;;;;;;;17.80;7.75;;;14.10;94.20;;;;;;7395417;19;20055;-76
2022/05/05 08:50:13;;;;;;;14.23;8.38;;;14.10;94.00;;;;;;7398572;19;20030;-76
2022/05/05 08:52:48;;;;;;;11.90;6.20;;;14.20;93.20;;;;;;7396907;19;20037;-76
2022/05/05 08:55:18;;;;;;;8.98;5.20;;;14.20;91.60;;;;;;7400716;19;20421;-75
2022/05/05 08:57:51;;;;;;;7.13;3.33;;;14.30;91.00;;;;;;7400014;19;20018;-75
2022/05/05 09:00:20;;;;;;;12.15;6.93;;;14.40;89.00;;;;;;7402359;19;20002;-75
2022/05/05 09:02:56;;;;;;;10.13;6.70;;;14.60;91.40;;;;;;7402202;19;20046;-77
2022/05/05 09:05:55;;;;;;;11.68;6.75;;;14.80;91.70;;;;;;7402144;19;20014;-76
2022/05/05 09:08:33;;;;;;;14.63;7.55;;;14.90;90.60;;;;;;7403825;19;20037;-77
2022/05/05 09:11:03;;;;;;;11.00;7.13;;;15.00;90.60;;;;;;7401149;19;20413;-77
2022/05/05 09:13:36;;;;;;;14.60;6.47;;;15.00;91.30;;;;;;7400143;19;20369;-77
2022/05/05 09:16:08;;;;;;;10.63;6.43;;;15.10;90.50;;;;;;7400803;19;20351;-77
2022/05/05 09:18:38;;;;;;;14.05;7.28;;;14.80;90.30;;;;;;7402453;19;20027;-77
2022/05/05 09:21:08;;;;;;;9.52;6.78;;;14.80;90.90;;;;;;7404269;19;20025;-77
2022/05/05 09:24:34;;;;;;;12.05;6.93;;;14.90;91.30;;;;;;7403313;19;20418;-77
2022/05/05 09:26:31;;;;;;;10.00;6.72;;;15.10;90.50;;;;;;7401221;19;20011;-76
2022/05/05 09:29:21;;;;;;;11.60;6.50;;;15.70;91.70;;;;;;7399379;19;20010;-76
2022/05/05 09:31:50;;;;;;;11.10;5.82;;;15.80;91.20;;;;;;7401821;19;20006;-77
2022/05/05 09:34:22;;;;;;;13.15;7.13;;;15.80;90.30;;;;;;7400437;19;20010;-77
2022/05/05 09:36:52;;;;;;;10.57;6.75;;;15.70;89.50;;;;;;7398202;19;20019;-77
2022/05/05 09:39:21;;;;;;;9.27;6.40;;;15.60;90.00;;;;;;7402414;19;20039;-77
2022/05/05 09:41:54;;;;;;;11.07;7.05;;;16.10;89.30;;;;;;7400893;19;20014;-77
2022/05/05 09:44:25;;;;;;;11.93;6.88;;;16.20;88.20;;;;;;7401157;19;20063;-77
2022/05/05 09:46:54;;;;;;;8.82;6.40;;;16.50;87.40;;;;;;7401071;19;20082;-77
2022/05/05 09:49:23;;;;;;;10.25;5.95;;;16.30;87.20;;;;;;7402017;19;20472;-77
2022/05/05 10:00:23;;;;;;;7.10;4.97;;;17.00;85.70;;;;;;7401364;19;20018;-77
2022/05/05 10:05:39;;;;;;;11.25;5.70;;;17.30;83.10;;;;;;7403826;19;20018;-76
2022/05/05 10:08:12;;;;;;;10.68;6.38;;;17.40;85.40;;;;;;7392784;19;20321;-77
2022/05/05 10:10:42;;;;;;;10.57;6.03;;;17.90;84.40;;;;;;7394576;19;20534;-77
2022/05/05 10:13:13;;;;;;;9.95;6.20;;;17.80;82.70;;;;;;7396889;19;20022;-77
2022/05/05 10:15:45;;;;;;;9.60;6.07;;;17.80;83.50;;;;;;7395919;19;20497;-78
2022/05/05 10:18:15;;;;;;;10.38;6.70;;;17.90;82.80;;;;;;7394974;19;20027;-77
2022/05/05 10:20:45;;;;;;;10.00;6.30;;;18.10;81.70;;;;;;7399689;19;20476;-77
2022/05/05 10:23:21;;;;;;;9.32;6.40;;;17.80;82.50;;;;;;7396005;19;20022;-77
2022/05/05 10:25:55;;;;;;;10.73;6.35;;;17.20;84.40;;;;;;7396695;19;20021;-77
2022/05/05 10:28:43;;;;;;;12.30;6.82;;;17.40;83.90;;;;;;7394283;19;20082;-76
2022/05/05 10:31:45;;;;;;;9.10;5.22;;;17.70;82.40;;;;;;7398277;19;20022;-77
2022/05/05 10:34:19;;;;;;;12.88;6.18;;;17.70;81.70;;;;;;7395358;19;20018;-77
2022/05/05 10:37:05;;;;;;;10.52;6.43;;;17.40;83.30;;;;;;7389147;19;20074;-77
2022/05/05 10:39:51;;;;;;;12.57;6.97;;;17.10;82.10;;;;;;7396617;19;20499;-77
2022/05/05 10:42:24;;;;;;;11.52;7.15;;;17.20;83.40;;;;;;7394204;19;20011;-76
2022/05/05 10:45:17;;;;;;;11.70;7.63;;;17.50;82.30;;;;;;7394173;19;20517;-77
2022/05/05 10:48:14;;;;;;;12.05;6.90;;;17.90;81.40;;;;;;7394343;19;20019;-77
2022/05/05 10:50:50;;;;;;;;;;;18.00;80.70;;;;;;7393267;19;20019;-77
2022/05/05 10:53:34;;;;;;;11.48;7.28;;;18.10;80.10;;;;;;7396139;19;19927;-76
2022/05/05 10:56:04;;;;;;;10.82;6.65;;;18.30;79.30;;;;;;7395875;19;20013;-76
2022/05/05 10:58:59;;;;;;;12.13;7.00;;;18.70;80.20;;;;;;7397703;19;20017;-76
2022/05/05 11:01:33;;;;;;;11.27;7.07;;;19.20;76.80;;;;;;7395934;19;20118;-76
2022/05/05 11:04:31;;;;;;;10.23;6.75;;;17.50;76.40;;;;;;7393636;19;20023;-76
2022/05/05 11:07:39;;;;;;;11.00;6.93;;;18.80;76.00;;;;;;7392766;19;20018;-77
2022/05/05 11:10:10;;;;;;;14.20;7.75;;;18.80;76.00;;;;;;7394920;19;20022;-77
2022/05/05 11:12:40;;;;;;;12.50;6.85;;;18.50;77.90;;;;;;7393752;19;20026;-77
2022/05/05 11:23:29;;;;;;;11.23;7.32;;;18.80;76.20;;;;;;7395825;19;20048;-77
2022/05/05 11:26:00;;;;;;;10.82;6.82;;;19.40;76.00;;;;;;7395538;19;20312;-76
2022/05/05 11:28:33;;;;;;;11.00;7.30;;;19.70;74.70;;;;;;7392822;19;20015;-76
2022/05/05 11:31:02;;;;;;;10.88;7.32;;;20.00;74.20;;;;;;7398089;19;20039;-76
2022/05/05 11:33:32;;;;;;;11.10;6.70;;;20.20;72.60;;;;;;7392937;19;20512;-77
2022/05/05 11:36:04;;;;;;;11.45;6.95;;;20.10;72.60;;;;;;7393726;19;20021;-76
2022/05/05 11:38:33;;;;;;;11.73;7.22;;;20.90;72.80;;;;;;7394302;19;20010;-76
2022/05/05 11:41:06;;;;;;;9.80;6.60;;;21.40;70.60;;;;;;7391335;19;20043;-79
2022/05/05 11:46:18;;;;;;;9.93;6.97;;;21.20;68.20;;;;;;7395075;19;20105;-79
2022/05/05 11:48:54;;;;;;;14.95;7.35;;;20.60;69.00;;;;;;7394408;19;20359;-79
2022/05/05 11:51:27;;;;;;;12.38;7.47;;;20.60;68.80;;;;;;7394837;19;20026;-79
2022/05/05 11:54:08;;;;;;;12.35;7.80;;;21.00;68.30;;;;;;7395772;19;20354;-79
2022/05/05 11:56:38;;;;;;;11.40;7.97;;;20.50;68.10;;;;;;7391645;19;20347;-79
2022/05/05 12:02:09;;;;;;;13.60;7.45;;;21.30;68.00;;;;;;7393822;19;20086;-79
2022/05/05 12:04:42;;;;;;;12.00;7.07;;;21.40;67.00;;;;;;7394443;19;20014;-78
2022/05/05 12:07:19;;;;;;;10.07;7.05;;;21.70;66.10;;;;;;7392937;19;20042;-79
2022/05/05 12:09:50;;;;;;;13.23;8.90;;;21.00;66.80;;;;;;7393908;19;20131;-78
2022/05/05 12:12:21;;;;;;;11.05;7.30;;;20.10;67.90;;;;;;7394145;19;20141;-78
2022/05/05 12:14:53;;;;;;;11.65;7.35;;;20.70;68.40;;;;;;7398168;19;20082;-78
2022/05/05 12:17:23;;;;;;;8.75;6.90;;;22.40;68.00;;;;;;7392832;19;20014;-78
2022/05/05 12:19:55;;;;;;;10.43;6.78;;;22.70;65.30;;;;;;7397039;19;20038;-78
2022/05/05 12:22:31;;;;;;;14.80;8.60;;;23.60;63.20;;;;;;7392800;19;20014;-78
2022/05/05 12:25:13;;;;;;;8.65;6.70;;;23.60;60.50;;;;;;7397716;19;20011;-77
2022/05/05 12:27:44;;;;;;;11.32;7.25;;;22.80;62.20;;;;;;7392037;19;20070;-78
2022/05/05 12:30:15;;;;;;;11.80;7.28;;;23.30;62.00;;;;;;7393064;19;20090;-78
2022/05/05 12:32:54;;;;;;;11.10;6.72;;;24.30;61.40;;;;;;7395391;19;20022;-78
2022/05/05 12:35:32;;;;;;;9.60;6.60;;;24.20;59.80;;;;;;7392634;19;20044;-78
2022/05/05 12:38:05;;;;;;;9.05;6.90;;;24.60;58.00;;;;;;7392881;19;20049;-76
2022/05/05 12:40:35;;;;;;;10.18;7.53;;;23.40;57.40;;;;;;7389275;19;20042;-76
2022/05/05 12:43:06;;;;;;;13.38;7.25;;;22.40;59.90;;;;;;7395708;19;20019;-78
2022/05/05 12:45:37;;;;;;;11.43;7.75;;;22.60;59.80;;;;;;7397468;19;20035;-78
2022/05/05 12:48:07;;;;;;;10.90;7.22;;;23.10;59.40;;;;;;7395203;19;20041;-78
2022/05/05 12:50:38;;;;;;;10.02;6.05;;;23.60;57.80;;;;;;7394308;19;20014;-78
2022/05/05 13:01:28;;;;;;;8.43;6.78;;;25.80;54.50;;;;;;7394005;19;20067;-78
2022/05/05 13:03:57;;;;;;;11.98;7.35;;;26.00;55.00;;;;;;7393676;19;20085;-77
2022/05/05 13:06:27;;;;;;;10.02;6.80;;;26.30;55.00;;;;;;7394553;19;20022;-77
2022/05/05 13:08:59;;;;;;;10.38;7.50;;;26.30;55.40;;;;;;7388186;19;20340;-75
2022/05/05 13:11:28;;;;;;;10.27;7.30;;;26.10;54.30;;;;;;7391427;19;20039;-75
2022/05/05 13:13:57;;;;;;;9.38;6.82;;;25.80;54.90;;;;;;7392995;19;20014;-77
2022/05/05 13:16:27;;;;;;;9.23;5.75;;;25.70;56.60;;;;;;7388622;19;20027;-77
2022/05/05 13:18:57;;;;;;;10.20;7.18;;;25.60;56.10;;;;;;7389490;19;20026;-77
2022/05/05 13:21:26;;;;;;;11.73;6.65;;;25.60;55.80;;;;;;7395500;19;20090;-77
2022/05/05 13:23:55;;;;;;;9.32;6.93;;;25.40;56.30;;;;;;7394950;19;20014;-77
2022/05/05 13:26:27;;;;;;;9.15;6.47;;;25.50;56.40;;;;;;7393377;19;20020;-77
2022/05/05 13:28:56;;;;;;;10.73;6.47;;;25.60;56.50;;;;;;7390419;19;20509;-77
2022/05/05 13:31:25;;;;;;;11.35;7.13;;;26.00;55.80;;;;;;7394972;19;20015;-77
2022/05/05 13:33:55;;;;;;;10.68;6.90;;;25.70;55.70;;;;;;7394268;19;20015;-78
2022/05/05 13:36:24;;;;;;;9.10;6.45;;;25.30;56.20;;;;;;7392827;19;20015;-77
2022/05/05 13:38:53;;;;;;;10.55;6.93;;;25.30;56.60;;;;;;7397018;19;20082;-77
2022/05/05 13:41:22;;;;;;;9.93;6.45;;;26.00;55.90;;;;;;7399275;19;20060;-77
2022/05/05 13:43:55;;;;;;;12.13;6.90;;;26.10;54.60;;;;;;7400454;19;20026;-77
2022/05/05 13:46:24;;;;;;;10.75;6.97;;;26.40;53.30;;;;;;7401395;19;20022;-77
2022/05/05 13:48:53;;;;;;;9.75;6.72;;;26.10;53.50;;;;;;7401332;19;20018;-77
2022/05/05 13:51:22;;;;;;;9.82;7.10;;;26.20;53.80;;;;;;7397341;19;20055;-77
2022/05/05 13:53:51;;;;;;;12.30;6.97;;;26.10;53.90;;;;;;7399801;19;20027;-76
2022/05/05 13:56:20;;;;;;;10.48;7.80;;;26.90;53.40;;;;;;7398104;19;20015;-75
2022/05/05 13:58:50;;;;;;;14.05;7.68;;;27.70;51.50;;;;;;7400035;19;20010;-75
2022/05/05 14:01:21;;;;;;;11.68;8.05;;;28.10;51.00;;;;;;7401527;19;20494;-75
2022/05/05 14:03:51;;;;;;;15.57;7.30;;;28.30;49.80;;;;;;7399361;19;20010;-76
2022/05/05 14:06:20;;;;;;;10.63;7.78;;;27.70;48.50;;;;;;7401507;19;20069;-75
2022/05/05 14:14:18;;;;;;;12.43;7.32;;;28.50;47.10;;;;;;7398133;19;20014;-76
2022/05/05 14:16:50;;;;;;;11.32;8.23;;;28.50;47.80;;;;;;7399284;19;20046;-76
2022/05/05 14:19:20;;;;;;;12.98;7.80;;;29.00;46.40;;;;;;7399797;19;20078;-75